MSC Maria Saveria — 3FLE8 — position and weather

sailwx.info

Track history (hours):
 
Tides and Currents Weather Stations Pressure Air Temp Water Temp Dewpoint Dewpoint Depression Visibility Wind Speed Wind Dir Waves Ship Positions

MSC Maria Saveria

Last reported at 2017-Feb-11 23:26 UTC. Time now 2017-Feb-27 18:14 UTC.
Position N 37°48' E 015°51'.
Warning: this ship's position is 15 days out of date.

Length 366 m; draft 15 m.

Type: Ship (hazmat cat A). MMSI: 372400000.

Date/timePositionNaut miles runAvg speedWind from/ knotsBaromVisibWave heightAir tempDewpointWater temp
2017-Feb-11 23:26N 37°48' E 015°51'1719.5
2017-Feb-11 22:33N 37°59' E 015°34'1716.5
2017-Feb-11 21:33N 38°15' E 015°39'1515.5
2017-Feb-11 20:34N 38°27' E 015°52'1 1.3
2017-Feb-11 19:30N 38°27' E 015°54'0 0.0
2017-Feb-11 18:33N 38°27' E 015°54'0 0.0
2017-Feb-11 17:33N 38°27' E 015°54'0 0.0
2017-Feb-11 16:30N 38°27' E 015°54'0 0.0
2017-Feb-11 15:33N 38°27' E 015°54'0 0.0
2017-Feb-11 14:33N 38°27' E 015°54'0 0.0
2017-Feb-11 13:33N 38°27' E 015°54'0 0.0
2017-Feb-11 12:33N 38°27' E 015°54'0 0.0
2017-Feb-11 11:33N 38°27' E 015°54'0 0.0
2017-Feb-11 10:33N 38°27' E 015°54'0 0.0
2017-Feb-11 09:33N 38°27' E 015°54'0 0.0
2017-Feb-11 08:33N 38°27' E 015°54'0 0.0
2017-Feb-11 07:33N 38°27' E 015°54'0 0.0
2017-Feb-11 06:33N 38°27' E 015°54'0 0.0
2017-Feb-11 05:33N 38°27' E 015°54'0 0.0
2017-Feb-11 04:33N 38°27' E 015°54'0 0.0
2017-Feb-11 03:33N 38°27' E 015°54'0 0.0
2017-Feb-11 02:33N 38°27' E 015°54'0 0.0
2017-Feb-11 01:30N 38°27' E 015°54'0 0.0
2017-Feb-11 00:33N 38°27' E 015°54'0 0.0
2017-Feb-10 23:33N 38°27' E 015°54'0 0.0
2017-Feb-10 22:30N 38°27' E 015°54'0 0.0
2017-Feb-10 21:33N 38°27' E 015°54'0 0.0
2017-Feb-10 20:33N 38°27' E 015°54'0 0.0
2017-Feb-10 19:33N 38°27' E 015°54'0 0.0
2017-Feb-10 18:33N 38°27' E 015°54'0 0.0
2017-Feb-10 17:30N 38°27' E 015°54'0 0.0
2017-Feb-10 16:33N 38°27' E 015°54'0 0.0
2017-Feb-10 15:30N 38°27' E 015°54'0 0.0
2017-Feb-10 14:33N 38°27' E 015°54'0 0.0
2017-Feb-10 13:33N 38°27' E 015°54'0 0.0
2017-Feb-10 12:33N 38°27' E 015°54'0 0.0
2017-Feb-10 11:33N 38°27' E 015°54'0 0.0
2017-Feb-10 10:33N 38°27' E 015°54'0 0.0
2017-Feb-10 09:30N 38°27' E 015°54'0 0.1
2017-Feb-10 08:33N 38°27' E 015°54'4 3.8
2017-Feb-10 07:33N 38°27' E 015°49'4 3.9
2017-Feb-10 06:33N 38°26' E 015°44'0 0.2
2017-Feb-10 05:33N 38°26' E 015°45'0 0.3
2017-Feb-10 04:33N 38°26' E 015°45'0 0.3
2017-Feb-10 03:33N 38°27' E 015°45'0 0.1
2017-Feb-10 02:33N 38°27' E 015°45'0 0.1
2017-Feb-10 01:33N 38°27' E 015°45'0 0.1
2017-Feb-10 00:33N 38°27' E 015°45'0 0.3
2017-Feb-09 23:33N 38°27' E 015°45'0 0.0
2017-Feb-09 22:33N 38°27' E 015°45'0 0.3
2017-Feb-09 21:33N 38°27' E 015°45'0 0.3
2017-Feb-09 20:33N 38°27' E 015°45'0 0.4
2017-Feb-09 19:33N 38°26' E 015°45'1 0.7
2017-Feb-09 18:33N 38°26' E 015°45'1 1.0
2017-Feb-09 17:33N 38°25' E 015°46'3 3.2
2017-Feb-09 16:33N 38°25' E 015°42'10 9.8
2017-Feb-09 15:33N 38°23' E 015°29'1010.3
2017-Feb-09 14:33N 38°22' E 015°16'1010.4
2017-Feb-09 13:33N 38°20' E 015°03'1010.0
2017-Feb-09 12:33N 38°20' E 014°51'1010.4
2017-Feb-09 11:33N 38°20' E 014°37'1010.2
2017-Feb-09 10:33N 38°21' E 014°24'10 9.8
2017-Feb-09 09:31N 38°22' E 014°12'14 9.8
2017-Feb-09 08:05N 38°23' E 013°53'916.7
2017-Feb-09 07:31N 38°24' E 013°41'1313.9
2017-Feb-09 06:34N 38°25' E 013°25'1111.0
2017-Feb-09 05:33N 38°26' E 013°11'1110.6
2017-Feb-09 04:33N 38°27' E 012°57'1010.2
2017-Feb-09 03:33N 38°28' E 012°44'10 9.9
2017-Feb-09 02:32N 38°28' E 012°31'9 9.7
2017-Feb-09 01:33N 38°27' E 012°19'  
2017-Feb-06 16:11N 36°35' W 000°35'914.6
2017-Feb-06 15:33N 36°32' W 000°46'19716.1
2017-Feb-06 03:22N 36°02' W 004°47'2119.2
2017-Feb-06 02:15N 36°01' W 005°14'1420.8
2017-Feb-06 01:33N 35°57' W 005°31'23215.0
2017-Feb-05 10:06N 37°43' W 009°48'1316.7
2017-Feb-05 09:18N 37°56' W 009°52'1216.5
2017-Feb-05 08:33N 38°08' W 009°56'1717.1
2017-Feb-05 07:33N 38°25' W 010°00'2120.6
2017-Feb-05 06:33N 38°45' W 010°05'2120.6
2017-Feb-05 05:34N 39°06' W 010°08'2120.9
2017-Feb-05 04:33N 39°27' W 010°07'60218.8
2017-Feb-03 20:33N 48°57' W 005°35'1716.5
2017-Feb-03 19:32N 49°05' W 005°13'7717.3
2017-Feb-03 15:07N 49°45' W 003°32'1017.2
2017-Feb-03 14:34N 49°48' W 003°19'1615.5
2017-Feb-03 13:34N 49°56' W 002°58'1514.8
2017-Feb-03 12:31N 50°01' W 002°35'4911.8
2017-Feb-03 08:25N 49°50' W 001°21'1416.3
2017-Feb-03 07:33N 49°45' W 001°01'1716.6
2017-Feb-03 06:33N 49°39' W 000°37'1716.8
2017-Feb-03 05:33N 49°33' W 000°13'1514.8
2017-Feb-03 04:33N 49°28' E 000°09'0 0.2
2017-Feb-03 03:33N 49°28' E 000°09'0 0.0
2017-Feb-03 02:33N 49°28' E 000°09'0 0.0
2017-Feb-03 01:33N 49°28' E 000°09'0 0.0
2017-Feb-03 00:33N 49°28' E 000°09'0 0.0
2017-Feb-02 23:33N 49°28' E 000°09'0 0.0
2017-Feb-02 22:33N 49°28' E 000°09'0 0.0
2017-Feb-02 21:33N 49°28' E 000°09'0 0.0
2017-Feb-02 20:33N 49°28' E 000°09'0 0.0
2017-Feb-02 19:33N 49°28' E 000°09'0 0.0
2017-Feb-02 18:33N 49°28' E 000°09'0 0.0
2017-Feb-02 17:33N 49°28' E 000°09'0 0.0
2017-Feb-02 16:33N 49°28' E 000°09'0 0.0
2017-Feb-02 15:33N 49°28' E 000°09'0 0.0
2017-Feb-02 14:33N 49°28' E 000°09'0 0.0
2017-Feb-02 13:33N 49°28' E 000°09'0 0.0
2017-Feb-02 12:33N 49°28' E 000°09'0 0.0
2017-Feb-02 11:33N 49°28' E 000°09'0 0.0
2017-Feb-02 10:33N 49°28' E 000°09'0 0.0
2017-Feb-02 09:33N 49°28' E 000°09'0 0.0
2017-Feb-02 08:33N 49°28' E 000°09'0 0.0
2017-Feb-02 07:33N 49°28' E 000°09'0 0.0
2017-Feb-02 06:33N 49°28' E 000°09'0 0.0
2017-Feb-02 05:33N 49°28' E 000°09'0 0.0
2017-Feb-02 04:33N 49°28' E 000°09'0 0.0
2017-Feb-02 03:33N 49°28' E 000°09'0 0.0
2017-Feb-02 02:33N 49°28' E 000°09'0 0.0
2017-Feb-02 01:33N 49°28' E 000°09'0 0.0
2017-Feb-02 00:33N 49°28' E 000°09'0 0.0
2017-Feb-01 23:33N 49°28' E 000°09'  
Track history (hours):
 
Tides and Currents Weather Stations Pressure Air Temp Water Temp Dewpoint Dewpoint Depression Visibility Wind Speed Wind Dir Waves Ship Positions

MSC Maria Saveria

Last reported at 2017-Feb-11 23:26 UTC. Time now 2017-Feb-27 18:14 UTC.
Position N 37°48' E 015°51'.
Warning: this ship's position is 15 days out of date.

Length 366 m; draft 15 m.

Type: Ship (hazmat cat A). MMSI: 372400000.

Date/timePositionNaut miles runAvg speedWind from/ knotsBaromVisibWave heightAir tempDewpointWater temp
2017-Feb-11 23:26N 37°48' E 015°51'1719.5
2017-Feb-11 22:33N 37°59' E 015°34'1716.5
2017-Feb-11 21:33N 38°15' E 015°39'1515.5
2017-Feb-11 20:34N 38°27' E 015°52'1 1.3
2017-Feb-11 19:30N 38°27' E 015°54'0 0.0
2017-Feb-11 18:33N 38°27' E 015°54'0 0.0
2017-Feb-11 17:33N 38°27' E 015°54'0 0.0
2017-Feb-11 16:30N 38°27' E 015°54'0 0.0
2017-Feb-11 15:33N 38°27' E 015°54'0 0.0
2017-Feb-11 14:33N 38°27' E 015°54'0 0.0
2017-Feb-11 13:33N 38°27' E 015°54'0 0.0
2017-Feb-11 12:33N 38°27' E 015°54'0 0.0
2017-Feb-11 11:33N 38°27' E 015°54'0 0.0
2017-Feb-11 10:33N 38°27' E 015°54'0 0.0
2017-Feb-11 09:33N 38°27' E 015°54'0 0.0
2017-Feb-11 08:33N 38°27' E 015°54'0 0.0
2017-Feb-11 07:33N 38°27' E 015°54'0 0.0
2017-Feb-11 06:33N 38°27' E 015°54'0 0.0
2017-Feb-11 05:33N 38°27' E 015°54'0 0.0
2017-Feb-11 04:33N 38°27' E 015°54'0 0.0
2017-Feb-11 03:33N 38°27' E 015°54'0 0.0
2017-Feb-11 02:33N 38°27' E 015°54'0 0.0
2017-Feb-11 01:30N 38°27' E 015°54'0 0.0
2017-Feb-11 00:33N 38°27' E 015°54'0 0.0
2017-Feb-10 23:33N 38°27' E 015°54'0 0.0
2017-Feb-10 22:30N 38°27' E 015°54'0 0.0
2017-Feb-10 21:33N 38°27' E 015°54'0 0.0
2017-Feb-10 20:33N 38°27' E 015°54'0 0.0
2017-Feb-10 19:33N 38°27' E 015°54'0 0.0
2017-Feb-10 18:33N 38°27' E 015°54'0 0.0
2017-Feb-10 17:30N 38°27' E 015°54'0 0.0
2017-Feb-10 16:33N 38°27' E 015°54'0 0.0
2017-Feb-10 15:30N 38°27' E 015°54'0 0.0
2017-Feb-10 14:33N 38°27' E 015°54'0 0.0
2017-Feb-10 13:33N 38°27' E 015°54'0 0.0
2017-Feb-10 12:33N 38°27' E 015°54'0 0.0
2017-Feb-10 11:33N 38°27' E 015°54'0 0.0
2017-Feb-10 10:33N 38°27' E 015°54'0 0.0
2017-Feb-10 09:30N 38°27' E 015°54'0 0.1
2017-Feb-10 08:33N 38°27' E 015°54'4 3.8
2017-Feb-10 07:33N 38°27' E 015°49'4 3.9
2017-Feb-10 06:33N 38°26' E 015°44'0 0.2
2017-Feb-10 05:33N 38°26' E 015°45'0 0.3
2017-Feb-10 04:33N 38°26' E 015°45'0 0.3
2017-Feb-10 03:33N 38°27' E 015°45'0 0.1
2017-Feb-10 02:33N 38°27' E 015°45'0 0.1
2017-Feb-10 01:33N 38°27' E 015°45'0 0.1
2017-Feb-10 00:33N 38°27' E 015°45'0 0.3
2017-Feb-09 23:33N 38°27' E 015°45'0 0.0
2017-Feb-09 22:33N 38°27' E 015°45'0 0.3
2017-Feb-09 21:33N 38°27' E 015°45'0 0.3
2017-Feb-09 20:33N 38°27' E 015°45'0 0.4
2017-Feb-09 19:33N 38°26' E 015°45'1 0.7
2017-Feb-09 18:33N 38°26' E 015°45'1 1.0
2017-Feb-09 17:33N 38°25' E 015°46'3 3.2
2017-Feb-09 16:33N 38°25' E 015°42'10 9.8
2017-Feb-09 15:33N 38°23' E 015°29'1010.3
2017-Feb-09 14:33N 38°22' E 015°16'1010.4
2017-Feb-09 13:33N 38°20' E 015°03'1010.0
2017-Feb-09 12:33N 38°20' E 014°51'1010.4
2017-Feb-09 11:33N 38°20' E 014°37'1010.2
2017-Feb-09 10:33N 38°21' E 014°24'10 9.8
2017-Feb-09 09:31N 38°22' E 014°12'14 9.8
2017-Feb-09 08:05N 38°23' E 013°53'916.7
2017-Feb-09 07:31N 38°24' E 013°41'1313.9
2017-Feb-09 06:34N 38°25' E 013°25'1111.0
2017-Feb-09 05:33N 38°26' E 013°11'1110.6
2017-Feb-09 04:33N 38°27' E 012°57'1010.2
2017-Feb-09 03:33N 38°28' E 012°44'10 9.9
2017-Feb-09 02:32N 38°28' E 012°31'9 9.7
2017-Feb-09 01:33N 38°27' E 012°19'  
2017-Feb-06 16:11N 36°35' W 000°35'914.6
2017-Feb-06 15:33N 36°32' W 000°46'19716.1
2017-Feb-06 03:22N 36°02' W 004°47'2119.2
2017-Feb-06 02:15N 36°01' W 005°14'1420.8
2017-Feb-06 01:33N 35°57' W 005°31'23215.0
2017-Feb-05 10:06N 37°43' W 009°48'1316.7
2017-Feb-05 09:18N 37°56' W 009°52'1216.5
2017-Feb-05 08:33N 38°08' W 009°56'1717.1
2017-Feb-05 07:33N 38°25' W 010°00'2120.6
2017-Feb-05 06:33N 38°45' W 010°05'2120.6
2017-Feb-05 05:34N 39°06' W 010°08'2120.9
2017-Feb-05 04:33N 39°27' W 010°07'60218.8
2017-Feb-03 20:33N 48°57' W 005°35'1716.5
2017-Feb-03 19:32N 49°05' W 005°13'7717.3
2017-Feb-03 15:07N 49°45' W 003°32'1017.2
2017-Feb-03 14:34N 49°48' W 003°19'1615.5
2017-Feb-03 13:34N 49°56' W 002°58'1514.8
2017-Feb-03 12:31N 50°01' W 002°35'4911.8
2017-Feb-03 08:25N 49°50' W 001°21'1416.3
2017-Feb-03 07:33N 49°45' W 001°01'1716.6
2017-Feb-03 06:33N 49°39' W 000°37'1716.8
2017-Feb-03 05:33N 49°33' W 000°13'1514.8
2017-Feb-03 04:33N 49°28' E 000°09'0 0.2
2017-Feb-03 03:33N 49°28' E 000°09'0 0.0
2017-Feb-03 02:33N 49°28' E 000°09'0 0.0
2017-Feb-03 01:33N 49°28' E 000°09'0 0.0
2017-Feb-03 00:33N 49°28' E 000°09'0 0.0
2017-Feb-02 23:33N 49°28' E 000°09'0 0.0
2017-Feb-02 22:33N 49°28' E 000°09'0 0.0
2017-Feb-02 21:33N 49°28' E 000°09'0 0.0
2017-Feb-02 20:33N 49°28' E 000°09'0 0.0
2017-Feb-02 19:33N 49°28' E 000°09'0 0.0
2017-Feb-02 18:33N 49°28' E 000°09'0 0.0
2017-Feb-02 17:33N 49°28' E 000°09'0 0.0
2017-Feb-02 16:33N 49°28' E 000°09'0 0.0
2017-Feb-02 15:33N 49°28' E 000°09'0 0.0
2017-Feb-02 14:33N 49°28' E 000°09'0 0.0
2017-Feb-02 13:33N 49°28' E 000°09'0 0.0
2017-Feb-02 12:33N 49°28' E 000°09'0 0.0
2017-Feb-02 11:33N 49°28' E 000°09'0 0.0
2017-Feb-02 10:33N 49°28' E 000°09'0 0.0
2017-Feb-02 09:33N 49°28' E 000°09'0 0.0
2017-Feb-02 08:33N 49°28' E 000°09'0 0.0
2017-Feb-02 07:33N 49°28' E 000°09'0 0.0
2017-Feb-02 06:33N 49°28' E 000°09'0 0.0
2017-Feb-02 05:33N 49°28' E 000°09'0 0.0
2017-Feb-02 04:33N 49°28' E 000°09'0 0.0
2017-Feb-02 03:33N 49°28' E 000°09'0 0.0
2017-Feb-02 02:33N 49°28' E 000°09'0 0.0
2017-Feb-02 01:33N 49°28' E 000°09'0 0.0
2017-Feb-02 00:33N 49°28' E 000°09'0 0.0
2017-Feb-01 23:33N 49°28' E 000°09'  

Dump ship's entire track history